Encofrador — EASS — position and weather

sailwx.info

Track history (hours):
 
Tides and Currents Weather Stations Pressure Air Temp Water Temp Dewpoint Dewpoint Depression Visibility Wind Speed Wind Dir Waves Ship Positions

Encofrador

Last reported at 2018-Jan-18 14:12 UTC. Time now 2018-Jan-21 08:11 UTC.
Position N 43°44' W 005°56'.

Length 107 m; draft 6.7 m.

Type: Cargo ship. MMSI: 224655000.

Date/timePositionNaut miles runAvg speedWind from/ knotsBaromVisibWave heightAir tempDewpointWater temp
2018-Jan-18 14:12N 43°44' W 005°56'4 9.6
2018-Jan-18 13:48N 43°43' W 005°51'3 9.5
2018-Jan-18 13:28N 43°41' W 005°47'510.1
2018-Jan-18 13:00N 43°37' W 005°43'4 7.8
2018-Jan-18 12:30N 43°34' W 005°41'1 1.0
2018-Jan-18 11:41N 43°34' W 005°42'0 0.0
2018-Jan-18 11:29N 43°34' W 005°42'0 0.0
2018-Jan-18 10:59N 43°34' W 005°42'0 0.0
2018-Jan-18 10:15N 43°34' W 005°42'0 0.0
2018-Jan-18 09:57N 43°34' W 005°42'0 0.0
2018-Jan-18 09:19N 43°34' W 005°42'0 0.0
2018-Jan-18 08:02N 43°34' W 005°42'0 0.0
2018-Jan-18 07:56N 43°34' W 005°42'0 0.0
2018-Jan-18 06:49N 43°34' W 005°42'0 0.0
2018-Jan-18 06:29N 43°34' W 005°42'0 0.0
2018-Jan-18 05:58N 43°34' W 005°42'0 0.0
2018-Jan-18 05:26N 43°34' W 005°42'0 0.0
2018-Jan-18 03:56N 43°34' W 005°42'0 0.0
2018-Jan-18 03:25N 43°34' W 005°42'0 0.0
2018-Jan-18 02:12N 43°34' W 005°42'0 0.0
2018-Jan-18 01:50N 43°34' W 005°42'0 0.0
2018-Jan-18 01:26N 43°34' W 005°42'0 0.0
2018-Jan-18 00:14N 43°34' W 005°42'  
2018-Jan-12 14:58N 51°34' W 002°59'0 0.0
2018-Jan-12 14:13N 51°34' W 002°59'0 0.0
2018-Jan-12 13:55N 51°34' W 002°59'0 0.0
2018-Jan-12 13:25N 51°34' W 002°59'0 0.0
2018-Jan-12 12:55N 51°34' W 002°59'0 0.0
2018-Jan-12 12:26N 51°34' W 002°59'0 0.0
2018-Jan-12 11:56N 51°34' W 002°59'0 0.0
2018-Jan-12 11:29N 51°34' W 002°59'0 0.0
2018-Jan-12 09:41N 51°34' W 002°59'0 0.0
2018-Jan-12 09:17N 51°34' W 002°59'0 0.0
2018-Jan-12 08:47N 51°34' W 002°59'0 0.0
2018-Jan-12 08:29N 51°34' W 002°59'0 0.0
2018-Jan-12 07:47N 51°34' W 002°59'0 0.0
2018-Jan-12 07:22N 51°34' W 002°59'0 0.0
2018-Jan-12 06:52N 51°34' W 002°59'0 0.0
2018-Jan-12 06:28N 51°34' W 002°59'0 0.0
2018-Jan-12 05:58N 51°34' W 002°59'0 0.0
2018-Jan-12 05:28N 51°34' W 002°59'0 0.0
2018-Jan-12 05:00N 51°34' W 002°59'0 0.0
2018-Jan-12 04:30N 51°34' W 002°59'0 0.0
2018-Jan-12 03:59N 51°34' W 002°59'0 0.0
2018-Jan-12 03:27N 51°34' W 002°59'0 0.0
2018-Jan-12 02:57N 51°34' W 002°59'0 0.0
2018-Jan-12 02:27N 51°34' W 002°59'0 0.0
2018-Jan-12 01:57N 51°34' W 002°59'0 0.0
2018-Jan-12 01:27N 51°34' W 002°59'0 0.0
2018-Jan-12 00:57N 51°34' W 002°59'0 0.0
2018-Jan-12 00:27N 51°34' W 002°59'0 0.0
2018-Jan-12 00:00N 51°34' W 002°59'0 0.0
2018-Jan-11 23:28N 51°34' W 002°59'0 0.0
2018-Jan-11 22:42N 51°34' W 002°59'0 0.0
2018-Jan-11 22:17N 51°34' W 002°59'0 0.0
2018-Jan-11 21:59N 51°34' W 002°59'0 0.0
2018-Jan-11 18:35N 51°34' W 002°59'0 0.1
2018-Jan-11 18:29N 51°34' W 002°59'0 0.0
2018-Jan-11 17:58N 51°34' W 002°59'0 0.0
2018-Jan-11 17:28N 51°34' W 002°59'0 0.0
2018-Jan-11 16:57N 51°34' W 002°59'0 0.0
2018-Jan-11 16:25N 51°34' W 002°59'0 0.0
2018-Jan-11 15:55N 51°34' W 002°59'0 0.0
2018-Jan-11 15:25N 51°34' W 002°59'0 0.0
2018-Jan-11 14:55N 51°34' W 002°59'0 0.3
2018-Jan-11 14:30N 51°34' W 002°59'1 1.0
2018-Jan-11 14:00N 51°33' W 002°59'1 2.9
2018-Jan-11 13:30N 51°32' W 002°58'3 6.2
2018-Jan-11 13:00N 51°29' W 003°01'611.0
2018-Jan-11 12:30N 51°24' W 003°06'712.9
2018-Jan-11 11:59N 51°22' W 003°15'4 7.1
2018-Jan-11 11:29N 51°21' W 003°21'6 0.6
2018-Jan-11 00:34N 51°21' W 003°31'113.3
2018-Jan-11 00:28N 51°21' W 003°33'713.6
2018-Jan-10 23:59N 51°20' W 003°44'813.6
2018-Jan-10 23:23N 51°19' W 003°57'513.6
2018-Jan-10 22:59N 51°19' W 004°06'613.1
2018-Jan-10 22:30N 51°16' W 004°15'713.7
2018-Jan-10 22:01N 51°11' W 004°22'713.4
2018-Jan-10 21:31N 51°07' W 004°30'713.3
2018-Jan-10 21:00N 51°02' W 004°38'612.7
2018-Jan-10 20:31N 50°58' W 004°46'612.4
2018-Jan-10 20:01N 50°54' W 004°53'612.2
2018-Jan-10 19:30N 50°50' W 005°00'612.1
2018-Jan-10 19:01N 50°46' W 005°07'611.9
2018-Jan-10 18:30N 50°42' W 005°14'611.8
2018-Jan-10 18:00N 50°38' W 005°22'611.8
2018-Jan-10 17:31N 50°34' W 005°29'611.8
2018-Jan-10 17:00N 50°31' W 005°36'611.7
2018-Jan-10 16:31N 50°27' W 005°43'911.7
2018-Jan-10 15:47N 50°21' W 005°52'39411.9
2018-Jan-09 06:50N 43°47' W 005°42'412.8
2018-Jan-09 06:30N 43°43' W 005°41'612.8
2018-Jan-09 06:00N 43°37' W 005°40'3 5.9
2018-Jan-09 05:30N 43°34' W 005°42'  
Track history (hours):
 
Tides and Currents Weather Stations Pressure Air Temp Water Temp Dewpoint Dewpoint Depression Visibility Wind Speed Wind Dir Waves Ship Positions

Encofrador

Last reported at 2018-Jan-18 14:12 UTC. Time now 2018-Jan-21 08:11 UTC.
Position N 43°44' W 005°56'.

Length 107 m; draft 6.7 m.

Type: Cargo ship. MMSI: 224655000.

Date/timePositionNaut miles runAvg speedWind from/ knotsBaromVisibWave heightAir tempDewpointWater temp
2018-Jan-18 14:12N 43°44' W 005°56'4 9.6
2018-Jan-18 13:48N 43°43' W 005°51'3 9.5
2018-Jan-18 13:28N 43°41' W 005°47'510.1
2018-Jan-18 13:00N 43°37' W 005°43'4 7.8
2018-Jan-18 12:30N 43°34' W 005°41'1 1.0
2018-Jan-18 11:41N 43°34' W 005°42'0 0.0
2018-Jan-18 11:29N 43°34' W 005°42'0 0.0
2018-Jan-18 10:59N 43°34' W 005°42'0 0.0
2018-Jan-18 10:15N 43°34' W 005°42'0 0.0
2018-Jan-18 09:57N 43°34' W 005°42'0 0.0
2018-Jan-18 09:19N 43°34' W 005°42'0 0.0
2018-Jan-18 08:02N 43°34' W 005°42'0 0.0
2018-Jan-18 07:56N 43°34' W 005°42'0 0.0
2018-Jan-18 06:49N 43°34' W 005°42'0 0.0
2018-Jan-18 06:29N 43°34' W 005°42'0 0.0
2018-Jan-18 05:58N 43°34' W 005°42'0 0.0
2018-Jan-18 05:26N 43°34' W 005°42'0 0.0
2018-Jan-18 03:56N 43°34' W 005°42'0 0.0
2018-Jan-18 03:25N 43°34' W 005°42'0 0.0
2018-Jan-18 02:12N 43°34' W 005°42'0 0.0
2018-Jan-18 01:50N 43°34' W 005°42'0 0.0
2018-Jan-18 01:26N 43°34' W 005°42'0 0.0
2018-Jan-18 00:14N 43°34' W 005°42'  
2018-Jan-12 14:58N 51°34' W 002°59'0 0.0
2018-Jan-12 14:13N 51°34' W 002°59'0 0.0
2018-Jan-12 13:55N 51°34' W 002°59'0 0.0
2018-Jan-12 13:25N 51°34' W 002°59'0 0.0
2018-Jan-12 12:55N 51°34' W 002°59'0 0.0
2018-Jan-12 12:26N 51°34' W 002°59'0 0.0
2018-Jan-12 11:56N 51°34' W 002°59'0 0.0
2018-Jan-12 11:29N 51°34' W 002°59'0 0.0
2018-Jan-12 09:41N 51°34' W 002°59'0 0.0
2018-Jan-12 09:17N 51°34' W 002°59'0 0.0
2018-Jan-12 08:47N 51°34' W 002°59'0 0.0
2018-Jan-12 08:29N 51°34' W 002°59'0 0.0
2018-Jan-12 07:47N 51°34' W 002°59'0 0.0
2018-Jan-12 07:22N 51°34' W 002°59'0 0.0
2018-Jan-12 06:52N 51°34' W 002°59'0 0.0
2018-Jan-12 06:28N 51°34' W 002°59'0 0.0
2018-Jan-12 05:58N 51°34' W 002°59'0 0.0
2018-Jan-12 05:28N 51°34' W 002°59'0 0.0
2018-Jan-12 05:00N 51°34' W 002°59'0 0.0
2018-Jan-12 04:30N 51°34' W 002°59'0 0.0
2018-Jan-12 03:59N 51°34' W 002°59'0 0.0
2018-Jan-12 03:27N 51°34' W 002°59'0 0.0
2018-Jan-12 02:57N 51°34' W 002°59'0 0.0
2018-Jan-12 02:27N 51°34' W 002°59'0 0.0
2018-Jan-12 01:57N 51°34' W 002°59'0 0.0
2018-Jan-12 01:27N 51°34' W 002°59'0 0.0
2018-Jan-12 00:57N 51°34' W 002°59'0 0.0
2018-Jan-12 00:27N 51°34' W 002°59'0 0.0
2018-Jan-12 00:00N 51°34' W 002°59'0 0.0
2018-Jan-11 23:28N 51°34' W 002°59'0 0.0
2018-Jan-11 22:42N 51°34' W 002°59'0 0.0
2018-Jan-11 22:17N 51°34' W 002°59'0 0.0
2018-Jan-11 21:59N 51°34' W 002°59'0 0.0
2018-Jan-11 18:35N 51°34' W 002°59'0 0.1
2018-Jan-11 18:29N 51°34' W 002°59'0 0.0
2018-Jan-11 17:58N 51°34' W 002°59'0 0.0
2018-Jan-11 17:28N 51°34' W 002°59'0 0.0
2018-Jan-11 16:57N 51°34' W 002°59'0 0.0
2018-Jan-11 16:25N 51°34' W 002°59'0 0.0
2018-Jan-11 15:55N 51°34' W 002°59'0 0.0
2018-Jan-11 15:25N 51°34' W 002°59'0 0.0
2018-Jan-11 14:55N 51°34' W 002°59'0 0.3
2018-Jan-11 14:30N 51°34' W 002°59'1 1.0
2018-Jan-11 14:00N 51°33' W 002°59'1 2.9
2018-Jan-11 13:30N 51°32' W 002°58'3 6.2
2018-Jan-11 13:00N 51°29' W 003°01'611.0
2018-Jan-11 12:30N 51°24' W 003°06'712.9
2018-Jan-11 11:59N 51°22' W 003°15'4 7.1
2018-Jan-11 11:29N 51°21' W 003°21'6 0.6
2018-Jan-11 00:34N 51°21' W 003°31'113.3
2018-Jan-11 00:28N 51°21' W 003°33'713.6
2018-Jan-10 23:59N 51°20' W 003°44'813.6
2018-Jan-10 23:23N 51°19' W 003°57'513.6
2018-Jan-10 22:59N 51°19' W 004°06'613.1
2018-Jan-10 22:30N 51°16' W 004°15'713.7
2018-Jan-10 22:01N 51°11' W 004°22'713.4
2018-Jan-10 21:31N 51°07' W 004°30'713.3
2018-Jan-10 21:00N 51°02' W 004°38'612.7
2018-Jan-10 20:31N 50°58' W 004°46'612.4
2018-Jan-10 20:01N 50°54' W 004°53'612.2
2018-Jan-10 19:30N 50°50' W 005°00'612.1
2018-Jan-10 19:01N 50°46' W 005°07'611.9
2018-Jan-10 18:30N 50°42' W 005°14'611.8
2018-Jan-10 18:00N 50°38' W 005°22'611.8
2018-Jan-10 17:31N 50°34' W 005°29'611.8
2018-Jan-10 17:00N 50°31' W 005°36'611.7
2018-Jan-10 16:31N 50°27' W 005°43'911.7
2018-Jan-10 15:47N 50°21' W 005°52'39411.9
2018-Jan-09 06:50N 43°47' W 005°42'412.8
2018-Jan-09 06:30N 43°43' W 005°41'612.8
2018-Jan-09 06:00N 43°37' W 005°40'3 5.9
2018-Jan-09 05:30N 43°34' W 005°42'  

Dump ship's entire track history